Time;durP1;ratioP1;P1;durP2;ratioP2;P2;SDS_P1;SDS_P2;PMS_P1;PMS_P2;Temp;Humidity;BMP_temperature;BMP_pressure;BME280_temperature;BME280_humidity;BME280_pressure;Samples;Min_cycle;Max_cycle;Signal;HPM_P1;HPM_P2
2022/02/23 00:01:46;;;;;;;17.45;4.88;;;;;;;6.45;81.12;100614.16;5110376;28;20291;-65
2022/02/23 00:04:31;;;;;;;16.33;4.70;;;;;;;6.45;81.32;100609.88;5111252;28;20065;-65
2022/02/23 00:07:15;;;;;;;19.33;5.72;;;;;;;6.44;81.39;100623.56;5111384;28;20145;-66
2022/02/23 00:09:59;;;;;;;16.55;5.22;;;;;;;6.44;81.12;100623.56;5110831;28;20113;-65
2022/02/23 00:12:43;;;;;;;19.42;4.72;;;;;;;6.45;81.19;100624.44;5110741;28;20051;-64
2022/02/23 00:15:29;;;;;;;15.93;6.28;;;;;;;6.44;81.65;100625.28;5109964;28;20046;-65
2022/02/23 00:18:16;;;;;;;15.80;4.50;;;;;;;6.44;81.19;100635.56;5110358;28;20066;-64
2022/02/23 00:21:01;;;;;;;26.50;6.40;;;;;;;6.42;80.92;100640.63;5111181;28;20189;-65
2022/02/23 00:23:44;;;;;;;19.52;6.35;;;;;;;6.42;81.52;100643.22;5111051;28;20100;-65
2022/02/23 00:26:28;;;;;;;10.88;5.13;;;;;;;6.40;81.12;100644.84;5110742;28;20047;-65
2022/02/23 00:29:13;;;;;;;;;;;;;;;6.38;81.42;100657.66;5110932;28;20472;-65
2022/02/23 00:31:57;;;;;;;12.98;5.55;;;;;;;6.37;81.14;100648.16;5110899;28;19961;-64
2022/02/23 00:34:41;;;;;;;15.85;5.00;;;;;;;6.36;81.00;100655.84;5110490;28;20050;-65
2022/02/23 00:37:25;;;;;;;13.50;5.10;;;;;;;6.37;81.17;100660.19;5110225;28;20088;-65
2022/02/23 00:40:09;;;;;;;;;;;;;;;6.35;81.04;100670.38;5110505;28;20046;-64
2022/02/23 00:42:55;;;;;;;11.38;4.75;;;;;;;6.34;81.22;100672.91;5109136;28;19968;-65
2022/02/23 00:45:40;;;;;;;18.17;5.65;;;;;;;6.34;81.48;100678.94;5110471;28;20078;-64
2022/02/23 00:48:24;;;;;;;16.58;5.35;;;;;;;6.34;81.02;100678.06;5109339;28;20440;-65
2022/02/23 00:51:10;;;;;;;14.52;4.13;;;;;;;6.34;81.22;100681.50;5110402;28;20104;-65
2022/02/23 00:53:54;;;;;;;15.02;4.72;;;;;;;6.34;81.25;100685.78;5110166;28;20102;-64
2022/02/23 00:56:38;;;;;;;9.80;3.47;;;;;;;6.35;81.03;100697.84;5110295;28;20051;-65
2022/02/23 00:59:22;;;;;;;11.93;4.47;;;;;;;6.34;81.09;100686.66;5109888;28;20047;-65
2022/02/23 01:02:05;;;;;;;19.90;6.38;;;;;;;6.34;80.95;100688.34;5096131;28;20089;-65
2022/02/23 01:04:50;;;;;;;15.02;5.97;;;;;;;6.34;81.01;100699.53;5096729;28;20050;-65
2022/02/23 01:07:34;;;;;;;12.52;4.90;;;;;;;6.34;81.26;100699.53;5096157;28;20124;-64
2022/02/23 01:10:20;;;;;;;13.95;4.88;;;;;;;6.36;81.01;100705.63;5095809;28;20043;-65
2022/02/23 01:13:04;;;;;;;13.07;5.10;;;;;;;6.35;81.23;100714.16;5096201;28;20078;-65
2022/02/23 01:15:48;;;;;;;13.95;4.60;;;;;;;6.36;81.29;100709.91;5095076;28;20097;-65
2022/02/23 01:18:34;;;;;;;14.60;4.88;;;;;;;6.34;81.34;100712.41;5095304;28;20052;-64
2022/02/23 01:21:18;;;;;;;13.00;5.18;;;;;;;6.34;81.13;100712.41;5096026;28;20089;-65
2022/02/23 01:24:05;;;;;;;12.85;4.72;;;;;;;6.34;80.88;100719.25;5095003;28;20051;-64
2022/02/23 01:26:49;;;;;;;17.33;4.72;;;;;;;6.34;81.06;100719.25;5095672;28;20055;-65
2022/02/23 01:29:33;;;;;;;15.07;5.05;;;;;;;6.34;81.13;100726.97;5096008;28;20042;-65
2022/02/23 01:32:19;;;;;;;;;;;;;;;6.33;80.82;100733.81;5096565;28;20161;-65
2022/02/23 01:35:04;;;;;;;8.95;4.07;;;;;;;6.32;81.13;100729.47;5095178;28;20401;-64
2022/02/23 01:37:48;;;;;;;;;;;;;;;6.32;81.04;100728.59;5095231;28;20093;-64
2022/02/23 01:40:32;;;;;;;14.75;4.45;;;;;;;6.31;81.09;100738.00;5094837;28;19954;-64
2022/02/23 01:43:16;;;;;;;;;;;;;;;6.32;80.78;100738.91;5095639;28;20639;-64
2022/02/23 01:46:00;;;;;;;14.02;4.25;;;;;;;6.31;80.87;100729.41;5095554;28;19962;-65
2022/02/23 01:48:45;;;;;;;11.20;4.10;;;;;;;6.31;80.79;100735.44;5095121;28;20461;-64
2022/02/23 01:51:30;;;;;;;9.27;4.85;;;;;;;6.31;80.75;100737.13;5094326;28;20046;-65
2022/02/23 01:54:14;;;;;;;10.30;5.38;;;;;;;6.31;81.05;100743.16;5095660;28;20043;-64
2022/02/23 01:57:00;;;;;;;12.82;4.72;;;;;;;6.33;81.32;100754.41;5094402;28;20446;-65
2022/02/23 01:59:44;;;;;;;9.70;5.15;;;;;;;6.33;80.68;100744.09;5094159;28;20074;-65
2022/02/23 02:02:31;;;;;;;7.15;4.18;;;;;;;6.34;80.91;100740.72;5094497;28;20062;-65
2022/02/23 02:05:16;;;;;;;11.32;5.05;;;;;;;6.34;81.00;100738.16;5095177;28;20051;-65
2022/02/23 02:07:59;;;;;;;;;;;;;;;6.33;81.18;100733.81;5095780;28;20047;-64
2022/02/23 02:10:43;;;;;;;8.50;3.88;;;;;;;6.32;81.21;100731.19;5094767;28;19973;-65
2022/02/23 02:13:27;;;;;;;13.30;5.43;;;;;;;6.33;80.71;100738.09;5094244;28;20407;-65
2022/02/23 02:16:11;;;;;;;12.38;4.75;;;;;;;6.31;80.77;100740.56;5095150;28;20055;-64
2022/02/23 02:18:57;;;;;;;16.63;4.57;;;;;;;6.33;80.89;100741.53;5095014;28;20161;-65
2022/02/23 02:22:02;;;;;;;8.63;3.88;;;;;;;6.33;81.05;100741.53;5095013;28;20051;-65
2022/02/23 02:24:47;;;;;;;7.83;3.80;;;;;;;6.33;80.75;100743.25;5093964;28;20047;-65
2022/02/23 02:27:31;;;;;;;10.68;4.63;;;;;;;6.32;80.67;100734.63;5093920;28;20461;-65
2022/02/23 02:30:15;;;;;;;;;;;;;;;6.32;80.65;100741.47;5095304;28;20097;-65
2022/02/23 02:32:59;;;;;;;10.25;3.70;;;;;;;6.30;80.96;100741.41;5094115;28;19923;-64
2022/02/23 02:35:45;;;;;;;10.98;4.63;;;;;;;6.32;80.45;100742.34;5094740;28;20047;-65
2022/02/23 02:38:36;;;;;;;9.32;4.00;;;;;;;6.31;80.65;100745.72;5094600;28;20050;-64
2022/02/23 02:41:20;;;;;;;10.45;3.65;;;;;;;6.31;81.01;100753.44;5094214;28;20528;-64
2022/02/23 02:44:04;;;;;;;7.35;3.40;;;;;;;6.30;80.98;100748.25;5093913;28;20074;-65
2022/02/23 02:46:49;;;;;;;10.73;4.45;;;;;;;6.31;81.24;100750.00;5094474;28;20069;-64
2022/02/23 02:49:33;;;;;;;12.68;4.85;;;;;;;6.31;80.74;100750.00;5093467;28;20055;-65
2022/02/23 02:52:17;;;;;;;9.82;3.38;;;;;;;6.31;80.52;100756.03;5093980;28;20465;-65
2022/02/23 02:55:03;;;;;;;11.07;3.65;;;;;;;6.30;80.80;100756.88;5094713;28;20158;-65
2022/02/23 02:57:47;;;;;;;11.02;4.57;;;;;;;6.30;81.11;100753.41;5093119;28;20047;-65
2022/02/23 03:00:34;;;;;;;12.18;4.40;;;;;;;6.30;81.07;100759.44;5094282;28;20063;-65
2022/02/23 03:03:18;;;;;;;11.95;4.47;;;;;;;6.30;80.67;100761.13;5092916;28;20088;-64
2022/02/23 03:06:02;;;;;;;7.75;4.30;;;;;;;6.30;81.04;100766.25;5093706;28;20071;-65
2022/02/23 03:08:49;;;;;;;;;;;;;;;6.29;80.94;100772.22;5093242;28;20101;-65
2022/02/23 03:11:34;;;;;;;14.63;4.57;;;;;;;6.28;80.65;100776.50;5092817;28;19923;-65
2022/02/23 03:14:18;;;;;;;9.77;3.75;;;;;;;6.27;80.70;100785.03;5093340;28;20047;-65
2022/02/23 03:17:02;;;;;;;8.35;4.00;;;;;;;6.27;80.98;100792.75;5094075;28;20063;-65
2022/02/23 03:19:46;;;;;;;7.68;4.43;;;;;;;6.27;80.82;100782.47;5093109;28;20431;-64
2022/02/23 03:22:30;;;;;;;8.70;3.58;;;;;;;6.26;80.75;100785.84;5094026;28;20415;-65
2022/02/23 03:25:15;;;;;;;8.95;4.15;;;;;;;6.27;80.92;100789.28;5093229;28;20055;-65
2022/02/23 03:28:01;;;;;;;9.77;3.70;;;;;;;6.26;80.97;100788.44;5093961;28;20047;-65
2022/02/23 03:30:46;;;;;;;9.85;3.63;;;;;;;6.24;80.66;100787.47;5093249;28;20047;-64
2022/02/23 03:33:32;;;;;;;10.82;3.83;;;;;;;6.25;80.80;100789.22;5093788;28;20564;-65
2022/02/23 03:36:17;;;;;;;12.15;4.13;;;;;;;6.25;80.62;100797.81;5093249;28;20543;-65
2022/02/23 03:39:04;;;;;;;9.70;3.78;;;;;;;6.26;80.47;100791.00;5092938;28;20139;-65
2022/02/23 03:41:50;;;;;;;7.85;3.75;;;;;;;6.25;80.70;100789.22;5092637;28;20510;-65
2022/02/23 03:44:39;;;;;;;8.75;3.58;;;;;;;6.25;80.53;100791.81;5093765;28;20109;-64
2022/02/23 03:47:24;;;;;;;8.02;4.30;;;;;;;6.25;80.90;100797.81;5092875;28;20047;-64
2022/02/23 03:50:08;;;;;;;13.93;4.22;;;;;;;6.24;80.75;100798.63;5093222;28;20066;-65
2022/02/23 03:52:54;;;;;;;9.07;4.38;;;;;;;6.23;80.75;100804.59;5093289;28;20082;-64
2022/02/23 03:55:40;;;;;;;8.60;3.53;;;;;;;6.23;80.63;100808.88;5093205;28;20054;-65
2022/02/23 03:58:26;;;;;;;10.75;4.75;;;;;;;6.23;80.81;100816.59;5092522;28;20046;-65
2022/02/23 04:01:10;;;;;;;13.13;4.65;;;;;;;6.21;80.53;100811.38;5093716;28;20096;-65
2022/02/23 04:03:54;;;;;;;11.10;4.03;;;;;;;6.20;80.66;100809.63;5093511;28;20120;-64
2022/02/23 04:06:39;;;;;;;9.15;4.75;;;;;;;6.19;80.64;100827.56;5093455;28;20087;-65
2022/02/23 04:10:12;;;;;;;16.40;4.32;;;;;;;6.19;80.62;100832.69;5131924;27;20370;-64
2022/02/23 04:12:58;;;;;;;9.05;4.40;;;;;;;6.19;80.39;100832.69;5132128;28;20511;-65
2022/02/23 04:15:42;;;;;;;14.52;4.05;;;;;;;6.19;80.64;100835.28;5131835;28;20608;-65
2022/02/23 04:18:26;;;;;;;8.95;4.90;;;;;;;6.19;80.94;100850.72;5116658;28;20050;-65
2022/02/23 04:21:12;;;;;;;11.38;5.15;;;;;;;6.19;80.64;100845.56;5131786;28;20528;-65
2022/02/23 04:23:57;;;;;;;8.98;4.05;;;;;;;6.17;80.86;100842.03;5131965;28;20134;-65
2022/02/23 04:26:41;;;;;;;9.85;3.97;;;;;;;6.19;80.67;100848.16;5131542;28;20554;-65
2022/02/23 04:29:25;;;;;;;;;;;;;;;6.17;80.73;100848.09;5132071;28;20085;-65
2022/02/23 04:32:09;;;;;;;8.50;3.60;;;;;;;6.18;80.79;100859.25;5131766;28;20320;-64
2022/02/23 04:34:53;;;;;;;11.98;4.40;;;;;;;6.17;80.56;100857.47;5131820;28;20050;-64
2022/02/23 04:37:38;;;;;;;6.50;3.83;;;;;;;6.16;80.38;100858.28;5131244;28;20054;-64
2022/02/23 04:40:22;;;;;;;10.77;3.97;;;;;;;6.16;80.47;100863.44;5131226;28;20130;-64
2022/02/23 04:43:05;;;;;;;12.23;4.03;;;;;;;6.16;80.93;100860.88;5115351;28;20463;-65
2022/02/23 04:47:39;;;;;;;12.02;4.70;;;;;;;6.29;80.76;100868.38;5130905;27;20457;-65
2022/02/23 04:50:22;;;;;;;9.93;4.15;;;;;;;6.47;80.34;100860.63;5115153;28;20774;-65
2022/02/23 04:53:06;;;;;;;7.30;4.13;;;;;;;6.38;80.15;100863.66;5131399;28;20046;-65
2022/02/23 04:55:50;;;;;;;9.32;4.15;;;;;;;6.30;80.45;100870.16;5131655;28;20461;-64
2022/02/23 04:58:35;;;;;;;;;;;;;;;6.24;80.50;100864.69;5116624;28;20050;-65
2022/02/23 05:03:08;;;;;;;9.68;3.90;;;;;;;6.19;80.34;100874.78;5123815;27;20193;-64
2022/02/23 05:05:52;;;;;;;10.77;3.55;;;;;;;6.18;80.40;100879.84;5090791;28;20537;-65
2022/02/23 05:08:37;;;;;;;8.73;3.90;;;;;;;6.16;80.78;100874.63;5090079;28;20514;-65
2022/02/23 05:11:21;;;;;;;;;;;;;;;6.14;80.81;100872.81;5090648;28;20453;-65
2022/02/23 05:14:05;;;;;;;5.90;3.75;;;;;;;6.13;80.59;100877.06;5090692;28;19923;-65
2022/02/23 05:17:14;;;;;;;9.18;3.90;;;;;;;6.11;80.45;100876.09;5131855;27;20436;-65
2022/02/23 05:19:59;;;;;;;11.63;3.38;;;;;;;6.12;80.47;100882.16;5132246;28;20046;-65
2022/02/23 05:22:48;;;;;;;8.45;4.10;;;;;;;6.11;80.70;100888.97;5115860;28;20069;-64
2022/02/23 05:25:33;;;;;;;6.93;3.88;;;;;;;6.11;80.58;100888.09;5116640;28;20515;-65
2022/02/23 05:28:17;;;;;;;6.32;4.15;;;;;;;6.10;80.74;100892.34;5116266;28;20155;-65
2022/02/23 05:31:02;;;;;;;13.00;4.70;;;;;;;6.09;80.75;100881.19;5116384;28;20050;-65
2022/02/23 05:33:46;;;;;;;10.70;4.88;;;;;;;6.10;80.43;100887.19;5131708;28;20108;-65
2022/02/23 05:36:29;;;;;;;10.70;3.67;;;;;;;6.08;80.19;100892.28;5131201;28;20038;-65
2022/02/23 05:39:57;;;;;;;7.57;4.40;;;;;;;6.09;80.41;100893.16;5111403;27;20258;-65
2022/02/23 05:42:41;;;;;;;8.00;3.17;;;;;;;6.09;80.48;100894.06;5110511;28;20051;-64
2022/02/23 05:45:25;;;;;;;12.55;5.40;;;;;;;6.08;81.13;100894.88;5110160;28;20063;-64
2022/02/23 05:48:09;;;;;;;13.38;4.10;;;;;;;6.08;80.37;100883.66;5111399;28;20502;-66
2022/02/23 05:50:53;;;;;;;11.10;3.97;;;;;;;6.08;80.42;100894.88;5110908;28;20093;-65
2022/02/23 05:53:37;;;;;;;9.35;3.33;;;;;;;6.07;80.60;100895.66;5111373;28;20105;-64
2022/02/23 05:56:24;;;;;;;7.60;4.18;;;;;;;6.07;80.48;100897.38;5110638;28;20079;-65
2022/02/23 05:59:08;;;;;;;8.93;3.78;;;;;;;6.07;80.66;100897.38;5109849;28;20050;-64
2022/02/23 06:01:52;;;;;;;;;;;;;;;6.05;80.36;100896.41;5111758;28;20051;-64
2022/02/23 06:04:36;;;;;;;8.75;4.30;;;;;;;6.04;80.33;100905.81;5110135;28;19943;-64
2022/02/23 06:07:20;;;;;;;11.43;3.47;;;;;;;6.03;80.36;100906.63;5110904;28;20502;-64
2022/02/23 06:10:05;;;;;;;5.93;3.65;;;;;;;6.04;80.71;100904.94;5110752;28;20039;-65
2022/02/23 06:12:49;;;;;;;;;;;;;;;6.02;80.66;100910.00;5110491;28;20047;-65
2022/02/23 06:15:36;;;;;;;10.95;4.55;;;;;;;6.02;80.40;100915.16;5109730;28;20332;-64
2022/02/23 06:18:25;;;;;;;8.13;4.32;;;;;;;6.01;80.21;100915.94;5109960;28;20109;-64
2022/02/23 06:21:09;;;;;;;8.98;3.85;;;;;;;6.01;80.82;100915.09;5109871;28;20074;-64
2022/02/23 06:23:53;;;;;;;9.32;4.63;;;;;;;6.00;80.90;100909.03;5110759;28;20047;-64
2022/02/23 06:26:37;;;;;;;;;;;;;;;6.01;80.79;100921.09;5111074;28;20090;-65
2022/02/23 06:29:21;;;;;;;10.95;4.25;;;;;;;6.01;80.63;100917.66;5110460;28;19918;-65
2022/02/23 06:32:07;;;;;;;6.60;4.35;;;;;;;6.00;80.37;100924.47;5110188;28;20414;-64
2022/02/23 06:34:51;;;;;;;9.90;4.45;;;;;;;6.01;80.77;100928.81;5110048;28;20089;-66
2022/02/23 06:37:38;;;;;;;6.88;3.25;;;;;;;6.01;80.34;100927.94;5109516;28;20051;-65
2022/02/23 06:40:22;;;;;;;8.25;4.00;;;;;;;6.00;80.34;100924.47;5109720;28;20051;-65
2022/02/23 06:43:07;;;;;;;8.48;4.45;;;;;;;6.00;80.60;100921.91;5109167;28;20097;-64
2022/02/23 06:45:52;;;;;;;9.88;4.20;;;;;;;6.00;80.81;100927.06;5108933;28;20132;-64
2022/02/23 06:48:36;;;;;;;8.43;4.53;;;;;;;6.01;80.25;100927.94;5110174;28;20055;-64
2022/02/23 06:51:20;;;;;;;14.07;6.20;;;;;;;6.01;80.81;100933.09;5096444;28;20127;-65
2022/02/23 06:54:04;;;;;;;9.15;4.15;;;;;;;6.00;80.67;100931.31;5096469;28;20139;-64
2022/02/23 06:56:48;;;;;;;10.00;4.97;;;;;;;5.99;80.23;100935.56;5095867;28;20062;-64
2022/02/23 06:59:35;;;;;;;11.23;5.38;;;;;;;5.99;80.99;100938.16;5096178;28;20047;-65
2022/02/23 07:02:19;;;;;;;10.95;5.45;;;;;;;5.99;80.86;100942.41;5095488;28;20071;-64
2022/02/23 07:05:07;;;;;;;9.98;4.82;;;;;;;5.98;80.34;100940.63;5095024;28;20526;-65
2022/02/23 07:07:51;;;;;;;14.00;5.32;;;;;;;5.97;80.35;100936.28;5095333;28;20117;-65
2022/02/23 07:10:36;;;;;;;;;;;;;;;5.97;80.86;100937.19;5096676;28;20121;-64
2022/02/23 07:13:21;;;;;;;11.15;5.00;;;;;;;5.97;80.74;100941.44;5095829;28;20428;-66
2022/02/23 07:16:05;;;;;;;16.58;6.65;;;;;;;5.96;80.55;100935.41;5096198;28;20098;-65
2022/02/23 07:18:50;;;;;;;;;;;;;;;5.94;80.91;100937.03;5096204;28;20093;-65
2022/02/23 07:21:34;;;;;;;9.88;4.70;;;;;;;5.93;80.31;100940.41;5095803;28;20020;-65
2022/02/23 07:24:19;;;;;;;14.02;6.07;;;;;;;5.92;80.73;100954.06;5095295;28;20600;-65
2022/02/23 07:27:09;;;;;;;11.98;5.45;;;;;;;5.91;80.64;100955.78;5096157;28;20120;-65
2022/02/23 07:29:54;;;;;;;10.75;5.80;;;;;;;5.90;80.64;100943.72;5095629;28;20063;-65
2022/02/23 07:32:38;;;;;;;11.77;6.45;;;;;;;5.90;80.75;100959.16;5095699;28;20090;-65
2022/02/23 07:35:22;;;;;;;;;;;;;;;5.87;80.88;100963.25;5096143;28;20058;-64
2022/02/23 07:38:08;;;;;;;16.73;7.72;;;;;;;5.86;80.58;100961.47;5094430;28;19942;-64
2022/02/23 07:40:51;;;;;;;18.73;6.13;;;;;;;5.86;80.50;100957.22;5095793;28;20043;-65
2022/02/23 07:43:36;;;;;;;20.65;7.82;;;;;;;5.85;80.36;100962.28;5095411;28;20074;-64
2022/02/23 07:46:20;;;;;;;12.80;7.25;;;;;;;5.83;80.51;100964.78;5095124;28;20530;-64
2022/02/23 07:49:04;;;;;;;18.63;7.88;;;;;;;5.82;80.47;100973.31;5095217;28;20161;-64
2022/02/23 07:51:48;;;;;;;20.40;7.53;;;;;;;5.82;80.71;100977.59;5094301;28;20039;-64
2022/02/23 07:54:32;;;;;;;19.77;8.15;;;;;;;5.79;80.27;100983.44;5095060;28;20043;-65
2022/02/23 07:57:16;;;;;;;20.23;8.52;;;;;;;5.76;80.30;100984.19;5094509;28;20043;-65
2022/02/23 08:00:01;;;;;;;;;;;;;;;5.74;80.31;100984.94;5095715;28;20039;-64
2022/02/23 08:02:45;;;;;;;22.75;9.23;;;;;;;5.74;80.40;100990.94;5093474;28;19966;-65
2022/02/23 08:05:28;;;;;;;22.40;10.45;;;;;;;5.73;80.64;100986.59;5094713;28;20055;-64
2022/02/23 08:08:13;;;;;;;15.77;9.77;;;;;;;5.72;80.34;100984.81;5094599;28;20051;-65
2022/02/23 08:10:58;;;;;;;27.80;12.55;;;;;;;5.70;80.46;100986.44;5094260;28;20051;-64
2022/02/23 08:13:41;;;;;;;22.23;10.20;;;;;;;5.71;80.27;100988.22;5095212;28;20046;-64
2022/02/23 08:19:34;;;;;;;25.33;11.40;;;;;;;5.71;80.37;100997.63;5086159;28;20074;-64
2022/02/23 08:22:19;;;;;;;33.83;12.85;;;;;;;5.68;80.06;100995.78;5093508;28;20050;-64
2022/02/23 08:25:06;;;;;;;25.42;12.13;;;;;;;5.71;80.37;101000.19;5094264;28;20449;-65
2022/02/23 08:27:51;;;;;;;24.23;12.25;;;;;;;5.67;80.22;100994.03;5093860;28;20120;-65
2022/02/23 08:30:38;;;;;;;32.83;13.10;;;;;;;5.68;80.14;100994.88;5093722;28;20093;-65
2022/02/23 08:33:22;;;;;;;29.20;14.20;;;;;;;5.67;80.57;100996.59;5094596;28;20414;-64
2022/02/23 08:36:06;;;;;;;26.63;12.77;;;;;;;5.70;80.28;100996.72;5094313;28;20039;-64
2022/02/23 08:38:52;;;;;;;31.55;12.50;;;;;;;5.71;80.37;100997.63;5093038;28;20051;-65
2022/02/23 08:41:39;;;;;;;34.13;13.35;;;;;;;5.73;80.33;100996.03;5094368;28;20100;-65
2022/02/23 08:44:23;;;;;;;28.52;13.90;;;;;;;5.73;80.21;100991.75;5094120;28;20063;-64
2022/02/23 08:47:08;;;;;;;27.85;12.18;;;;;;;5.75;80.14;100992.72;5094620;28;20627;-65
2022/02/23 08:49:55;;;;;;;25.27;12.20;;;;;;;5.76;80.27;100997.06;5093520;28;20176;-64
2022/02/23 08:52:38;;;;;;;25.08;11.73;;;;;;;5.77;80.87;100993.66;5093880;28;20051;-64
2022/02/23 08:55:24;;;;;;;26.38;12.63;;;;;;;5.79;80.08;100991.16;5093343;28;20047;-64
2022/02/23 08:58:13;;;;;;;29.65;11.38;;;;;;;5.81;80.10;100999.84;5093532;28;20078;-64
2022/02/23 09:00:57;;;;;;;21.70;10.98;;;;;;;5.83;80.15;101000.81;5094214;28;20097;-64
2022/02/23 09:03:44;;;;;;;21.30;10.93;;;;;;;5.84;80.80;101000.00;5094350;28;20412;-64
2022/02/23 09:06:29;;;;;;;27.45;11.88;;;;;;;5.88;80.02;101003.63;5093234;28;20105;-64
2022/02/23 09:09:16;;;;;;;31.73;10.15;;;;;;;5.91;80.49;100996.06;5092913;28;20082;-64
2022/02/23 09:12:00;;;;;;;23.58;11.02;;;;;;;5.95;80.51;101005.69;5094203;28;20059;-64
2022/02/23 09:14:44;;;;;;;24.08;9.68;;;;;;;5.99;80.37;101001.59;5093533;28;20062;-64
2022/02/23 09:17:31;;;;;;;21.40;9.15;;;;;;;6.01;80.10;101003.44;5093940;28;20105;-65
2022/02/23 09:20:15;;;;;;;25.15;9.73;;;;;;;6.06;80.58;100995.97;5093586;28;20047;-64
2022/02/23 09:22:59;;;;;;;21.17;9.20;;;;;;;6.08;80.24;101000.38;5093522;28;20043;-65
2022/02/23 09:25:42;;;;;;;19.23;9.52;;;;;;;6.14;80.26;101004.94;5093849;28;20094;-65
2022/02/23 09:28:28;;;;;;;22.90;9.00;;;;;;;6.17;79.96;100999.97;5093702;28;20055;-64
2022/02/23 09:31:14;;;;;;;31.70;10.00;;;;;;;6.19;80.55;101007.75;5093988;28;20050;-64
2022/02/23 09:33:58;;;;;;;22.83;10.00;;;;;;;6.22;80.11;101006.22;5093133;28;20089;-64
2022/02/23 09:36:43;;;;;;;23.55;8.35;;;;;;;6.27;80.35;101000.41;5093621;28;20047;-64
2022/02/23 09:39:31;;;;;;;20.95;8.15;;;;;;;6.29;80.17;101002.25;5092381;28;20055;-64
2022/02/23 09:42:15;;;;;;;20.10;8.45;;;;;;;6.33;79.91;100998.13;5092572;28;20039;-64
2022/02/23 09:45:01;;;;;;;24.75;9.35;;;;;;;6.35;80.16;100997.38;5093687;28;20102;-64
2022/02/23 09:47:47;;;;;;;20.77;8.52;;;;;;;6.39;80.11;100999.31;5093492;28;20050;-64
2022/02/23 09:50:31;;;;;;;15.77;6.63;;;;;;;6.42;79.91;100987.41;5093468;28;20059;-64
2022/02/23 09:53:18;;;;;;;20.33;8.20;;;;;;;6.44;79.63;100988.34;5092578;28;20066;-64
2022/02/23 09:56:02;;;;;;;21.05;7.55;;;;;;;6.47;80.20;100986.81;5093012;28;20098;-64
2022/02/23 09:58:50;;;;;;;24.02;7.88;;;;;;;6.49;79.51;100982.63;5093561;28;20051;-65
2022/02/23 10:01:34;;;;;;;17.52;6.25;;;;;;;6.53;79.71;100988.78;5093306;28;20046;-64
2022/02/23 10:04:21;;;;;;;;;;;;;;;6.54;79.88;100988.84;5092721;28;20534;-64
2022/02/23 10:07:06;;;;;;;25.33;8.10;;;;;;;6.57;79.72;100989.81;5092858;28;19935;-64
2022/02/23 10:09:54;;;;;;;22.80;7.07;;;;;;;6.58;79.80;100984.75;5092594;28;20054;-64
2022/02/23 10:12:41;;;;;;;19.85;7.45;;;;;;;6.59;80.06;100971.06;5092115;28;20085;-64
2022/02/23 10:15:26;;;;;;;26.45;7.65;;;;;;;6.63;79.21;100974.66;5092523;28;20451;-65
2022/02/23 10:18:16;;;;;;;24.73;8.77;;;;;;;6.66;79.87;100978.25;5092211;28;20415;-64
2022/02/23 10:20:59;;;;;;;20.40;7.25;;;;;;;6.69;79.70;100977.53;5092027;28;20415;-65
2022/02/23 10:23:43;;;;;;;23.80;8.88;;;;;;;6.70;79.33;100968.97;5093494;28;20101;-64
2022/02/23 10:26:30;;;;;;;24.58;8.30;;;;;;;6.73;79.72;100978.53;5095612;28;20471;-64
2022/02/23 10:29:14;;;;;;;23.58;8.45;;;;;;;6.74;79.45;100975.16;5096065;28;20156;-64
2022/02/23 10:32:02;;;;;;;24.58;8.98;;;;;;;6.76;79.20;100976.13;5095696;28;20123;-65
2022/02/23 10:34:49;;;;;;;26.70;7.90;;;;;;;6.77;79.40;100980.47;5096895;28;20500;-64
2022/02/23 10:37:37;;;;;;;26.00;7.43;;;;;;;6.80;79.63;100975.41;5095604;28;20521;-65
2022/02/23 10:40:26;;;;;;;22.23;7.07;;;;;;;6.83;79.59;100973.00;5095957;28;20047;-65
2022/02/23 10:43:25;;;;;;;26.98;9.30;;;;;;;6.84;79.23;100977.34;5096208;28;20051;-65
2022/02/23 10:46:12;;;;;;;23.08;7.55;;;;;;;6.85;79.33;100974.81;5095851;28;20046;-65
2022/02/23 10:48:59;;;;;;;20.83;6.78;;;;;;;6.87;79.00;100972.34;5095335;28;20074;-65
2022/02/23 10:51:45;;;;;;;16.27;6.90;;;;;;;6.89;79.04;100980.13;5095840;28;20466;-64
2022/02/23 10:54:30;;;;;;;25.98;6.25;;;;;;;6.89;79.08;100973.28;5096787;28;20050;-64
2022/02/23 10:57:19;;;;;;;14.27;5.85;;;;;;;6.91;78.97;100974.25;5095676;28;20051;-65
2022/02/23 11:00:15;;;;;;;14.55;6.80;;;;;;;6.94;79.09;100974.34;5095553;28;20149;-64
2022/02/23 11:02:59;;;;;;;16.60;8.15;;;;;;;6.96;78.98;100967.59;5095126;28;20047;-65
2022/02/23 11:05:44;;;;;;;;;;;;;;;6.97;79.04;100968.47;5096812;28;20533;-64
2022/02/23 11:08:28;;;;;;;18.45;6.10;;;;;;;6.97;78.83;100964.19;5096427;28;19965;-65
2022/02/23 11:11:12;;;;;;;;;;;;;;;6.98;78.96;100965.97;5095517;28;20522;-65
2022/02/23 11:13:58;;;;;;;18.98;6.70;;;;;;;6.99;79.16;100960.00;5096369;28;19918;-65
2022/02/23 11:16:43;;;;;;;16.92;5.97;;;;;;;7.00;78.81;100945.44;5095498;28;20051;-65
2022/02/23 11:19:30;;;;;;;;;;;;;;;7.00;78.94;100951.44;5095436;28;20050;-64
2022/02/23 11:22:15;;;;;;;16.90;5.85;;;;;;;7.01;79.08;100948.06;5095717;28;19923;-65
2022/02/23 11:25:01;;;;;;;13.05;5.35;;;;;;;7.02;79.22;100938.63;5095854;28;20086;-65
2022/02/23 11:27:49;;;;;;;14.63;5.97;;;;;;;7.03;79.20;100936.94;5094517;28;20097;-65
2022/02/23 11:30:36;;;;;;;17.60;5.60;;;;;;;7.03;78.93;100937.81;5094758;28;20510;-65
2022/02/23 11:33:42;;;;;;;19.75;5.70;;;;;;;7.07;78.81;100933.69;5095101;28;20079;-64
2022/02/23 11:36:47;;;;;;;16.83;5.97;;;;;;;7.09;78.96;100932.03;5093332;28;20093;-65
2022/02/23 11:39:33;;;;;;;15.68;5.45;;;;;;;7.09;78.70;100925.22;5095260;28;20411;-65
2022/02/23 11:42:21;;;;;;;20.27;5.80;;;;;;;7.11;78.80;100923.59;5095949;28;20101;-65
2022/02/23 11:45:13;;;;;;;13.63;4.80;;;;;;;7.11;78.63;100926.16;5094823;28;20047;-66
2022/02/23 11:47:57;;;;;;;13.60;5.32;;;;;;;7.12;79.06;100919.28;5094604;28;20123;-65
2022/02/23 11:51:02;;;;;;;16.25;5.45;;;;;;;7.13;78.97;100919.38;5095766;28;20051;-66
2022/02/23 11:53:46;;;;;;;19.10;6.60;;;;;;;7.14;78.88;100917.66;5094632;28;20106;-65
2022/02/23 11:56:48;;;;;;;10.43;4.10;;;;;;;7.14;78.98;100915.09;5095161;28;20521;-65
2022/02/23 12:02:29;;;;;;;11.65;4.35;;;;;;;7.14;78.96;100908.25;5007900;27;20677;-65
2022/02/23 12:05:32;;;;;;;13.80;4.53;;;;;;;7.13;78.86;100896.19;5006840;28;20073;-66
2022/02/23 12:08:31;;;;;;;13.02;4.90;;;;;;;7.10;78.74;100896.03;5007966;28;20099;-65
2022/02/23 12:11:18;;;;;;;13.88;5.15;;;;;;;7.10;78.65;100893.47;5007025;28;20061;-65
2022/02/23 12:14:02;;;;;;;12.82;4.68;;;;;;;7.10;78.56;100887.41;5007915;28;20042;-66
2022/02/23 12:16:49;;;;;;;10.27;4.38;;;;;;;7.07;78.85;100885.59;5007119;28;20057;-66
2022/02/23 12:19:40;;;;;;;8.27;3.40;;;;;;;7.06;78.54;100881.25;5006637;28;20416;-65
2022/02/23 12:22:28;;;;;;;11.23;3.95;;;;;;;7.04;78.59;100875.13;5006390;28;20179;-65
2022/02/23 12:25:13;;;;;;;16.65;4.43;;;;;;;7.03;78.77;100868.22;5006455;28;20190;-65
2022/02/23 12:27:57;;;;;;;14.13;4.35;;;;;;;7.03;78.92;100857.91;5007430;28;20588;-65
2022/02/23 12:30:48;;;;;;;15.60;4.47;;;;;;;7.03;78.50;100857.91;5006159;28;20076;-65
2022/02/23 12:33:35;;;;;;;15.75;4.53;;;;;;;7.02;78.35;100845.81;5006661;28;20089;-65
2022/02/23 12:36:32;;;;;;;12.90;4.07;;;;;;;7.01;78.71;100837.22;5006948;28;20149;-65
2022/02/23 12:39:25;;;;;;;10.07;4.60;;;;;;;7.00;78.90;100834.59;5006126;28;20100;-65
2022/02/23 12:42:10;;;;;;;14.02;4.10;;;;;;;7.00;78.70;100827.72;5006232;28;20049;-65
2022/02/23 12:44:59;;;;;;;7.15;3.42;;;;;;;7.00;78.35;100814.84;5006362;28;20405;-65
2022/02/23 12:48:05;;;;;;;10.85;4.00;;;;;;;7.00;78.69;100820.00;5007415;28;20057;-65
2022/02/23 12:50:55;;;;;;;15.60;4.30;;;;;;;7.01;78.52;100823.44;5006747;28;20045;-65
2022/02/23 12:53:42;;;;;;;10.30;3.55;;;;;;;7.00;78.45;100814.84;5006268;28;20099;-65
2022/02/23 12:56:28;;;;;;;12.10;4.60;;;;;;;7.00;78.50;100799.38;5005718;28;20085;-65
2022/02/23 12:59:15;;;;;;;6.00;3.42;;;;;;;6.99;78.12;100792.47;5007039;28;20056;-65
2022/02/23 13:02:02;;;;;;;12.45;3.90;;;;;;;7.00;78.31;100786.50;5005373;28;20056;-65
2022/02/23 13:04:47;;;;;;;8.80;3.58;;;;;;;7.00;78.61;100788.22;5006106;28;20073;-65
2022/02/23 13:07:31;;;;;;;9.30;2.95;;;;;;;7.02;78.34;100786.53;5006169;28;20101;-65
2022/02/23 13:10:17;;;;;;;11.68;4.32;;;;;;;7.02;78.22;100783.97;5007188;28;20155;-65